Greeley West High School, Colorado
Current Conditions -  °F | °C
As of 10:55 PM on Wednesday 22 Oct 2014 (Local Time) from KGXY Reporting Station
Clear Clear  
Wind Chill: 45°   Ceiling: Unl
Heat Index: 48°   Visibility: 10mi
Dew Point: 34°   Wind: 8mph
Humidity: 57%   Direction: 50°NE
Pressure: 30.14"   Gusts: NA
Location:  40.41412°N, 104.7064°W
Report Text: KGXY 230455Z AUTO 05007KT 10SM CLR 09/01 A3014 RMK AO1
Loading
Personal Weather Stations






























Interactive Weather Map
Tropical Storm Tracking
New forecast layout! Learn more

10-Day Weather Forecast

Advertisements
Track Severe Weather on mobile